sensor_id;sensor_type;location;lat;lon;timestamp;temperature;humidity
4505;DHT22;2265;48.794;9.520;2022-08-19T00:02:04;21.80;98.00
4505;DHT22;2265;48.794;9.520;2022-08-19T00:04:33;21.80;98.00
4505;DHT22;2265;48.794;9.520;2022-08-19T00:07:03;21.90;98.00
4505;DHT22;2265;48.794;9.520;2022-08-19T00:09:34;22.00;98.00
4505;DHT22;2265;48.794;9.520;2022-08-19T00:12:02;22.00;98.00
4505;DHT22;2265;48.794;9.520;2022-08-19T00:14:30;21.90;98.00
4505;DHT22;2265;48.794;9.520;2022-08-19T00:16:57;21.80;98.00
4505;DHT22;2265;48.794;9.520;2022-08-19T00:19:25;21.80;98.00
4505;DHT22;2265;48.794;9.520;2022-08-19T00:21:52;21.80;98.00
4505;DHT22;2265;48.794;9.520;2022-08-19T00:24:20;21.80;98.00
4505;DHT22;2265;48.794;9.520;2022-08-19T00:26:53;21.80;98.00
4505;DHT22;2265;48.794;9.520;2022-08-19T00:29:21;21.80;98.00
4505;DHT22;2265;48.794;9.520;2022-08-19T00:31:49;21.80;98.00
4505;DHT22;2265;48.794;9.520;2022-08-19T00:34:18;22.00;98.00
4505;DHT22;2265;48.794;9.520;2022-08-19T00:36:46;22.10;98.00
4505;DHT22;2265;48.794;9.520;2022-08-19T00:39:14;22.10;98.00
4505;DHT22;2265;48.794;9.520;2022-08-19T00:41:43;22.10;98.00
4505;DHT22;2265;48.794;9.520;2022-08-19T00:44:16;22.30;98.00
4505;DHT22;2265;48.794;9.520;2022-08-19T00:46:47;22.20;98.00
4505;DHT22;2265;48.794;9.520;2022-08-19T00:49:16;22.10;98.00
4505;DHT22;2265;48.794;9.520;2022-08-19T00:51:47;22.20;98.00
4505;DHT22;2265;48.794;9.520;2022-08-19T00:54:15;22.20;98.00
4505;DHT22;2265;48.794;9.520;2022-08-19T00:56:44;22.20;98.00
4505;DHT22;2265;48.794;9.520;2022-08-19T00:59:14;22.10;98.00
4505;DHT22;2265;48.794;9.520;2022-08-19T01:01:43;21.90;98.00
4505;DHT22;2265;48.794;9.520;2022-08-19T01:04:11;21.90;98.00
4505;DHT22;2265;48.794;9.520;2022-08-19T01:06:40;21.80;98.00
4505;DHT22;2265;48.794;9.520;2022-08-19T01:09:08;21.70;98.00
4505;DHT22;2265;48.794;9.520;2022-08-19T01:11:38;21.60;98.00
4505;DHT22;2265;48.794;9.520;2022-08-19T01:14:07;21.50;98.00
4505;DHT22;2265;48.794;9.520;2022-08-19T01:16:37;21.50;98.00
4505;DHT22;2265;48.794;9.520;2022-08-19T01:19:11;21.50;98.00
4505;DHT22;2265;48.794;9.520;2022-08-19T01:21:43;21.40;98.00
4505;DHT22;2265;48.794;9.520;2022-08-19T01:24:15;21.30;98.00
4505;DHT22;2265;48.794;9.520;2022-08-19T01:26:43;21.10;98.00
4505;DHT22;2265;48.794;9.520;2022-08-19T01:29:11;21.10;98.00
4505;DHT22;2265;48.794;9.520;2022-08-19T01:31:40;21.10;98.00
4505;DHT22;2265;48.794;9.520;2022-08-19T01:34:07;21.10;98.00
4505;DHT22;2265;48.794;9.520;2022-08-19T01:36:38;21.10;98.00
4505;DHT22;2265;48.794;9.520;2022-08-19T01:39:12;21.10;98.00
4505;DHT22;2265;48.794;9.520;2022-08-19T01:41:41;21.10;98.00
4505;DHT22;2265;48.794;9.520;2022-08-19T01:44:09;21.10;98.00
4505;DHT22;2265;48.794;9.520;2022-08-19T01:46:37;21.00;98.00
4505;DHT22;2265;48.794;9.520;2022-08-19T01:49:05;21.00;98.00
4505;DHT22;2265;48.794;9.520;2022-08-19T01:51:33;20.90;98.00
4505;DHT22;2265;48.794;9.520;2022-08-19T01:54:00;21.00;98.00
4505;DHT22;2265;48.794;9.520;2022-08-19T01:56:28;21.00;98.00
4505;DHT22;2265;48.794;9.520;2022-08-19T01:59:00;21.00;98.00
4505;DHT22;2265;48.794;9.520;2022-08-19T02:01:29;21.10;98.00
4505;DHT22;2265;48.794;9.520;2022-08-19T02:03:57;21.10;98.00
4505;DHT22;2265;48.794;9.520;2022-08-19T02:06:26;21.10;98.00
4505;DHT22;2265;48.794;9.520;2022-08-19T02:08:54;21.10;98.00
4505;DHT22;2265;48.794;9.520;2022-08-19T02:11:24;21.20;98.00
4505;DHT22;2265;48.794;9.520;2022-08-19T02:13:52;21.20;98.00
4505;DHT22;2265;48.794;9.520;2022-08-19T02:16:24;21.20;98.00
4505;DHT22;2265;48.794;9.520;2022-08-19T02:18:51;21.20;98.00
4505;DHT22;2265;48.794;9.520;2022-08-19T02:21:20;21.10;98.00
4505;DHT22;2265;48.794;9.520;2022-08-19T02:23:48;21.00;98.00
4505;DHT22;2265;48.794;9.520;2022-08-19T02:26:16;21.00;98.00
4505;DHT22;2265;48.794;9.520;2022-08-19T02:28:44;21.00;98.00
4505;DHT22;2265;48.794;9.520;2022-08-19T02:31:13;21.00;98.00
4505;DHT22;2265;48.794;9.520;2022-08-19T02:33:42;21.00;98.00
4505;DHT22;2265;48.794;9.520;2022-08-19T02:36:11;21.00;98.00
4505;DHT22;2265;48.794;9.520;2022-08-19T02:38:39;20.80;98.00
4505;DHT22;2265;48.794;9.520;2022-08-19T02:41:11;20.80;98.00
4505;DHT22;2265;48.794;9.520;2022-08-19T02:43:38;20.70;98.00
4505;DHT22;2265;48.794;9.520;2022-08-19T02:46:15;20.70;98.00
4505;DHT22;2265;48.794;9.520;2022-08-19T02:48:49;20.70;98.00
4505;DHT22;2265;48.794;9.520;2022-08-19T02:51:17;20.70;98.00
4505;DHT22;2265;48.794;9.520;2022-08-19T02:53:44;20.90;98.00
4505;DHT22;2265;48.794;9.520;2022-08-19T02:56:12;21.00;98.00
4505;DHT22;2265;48.794;9.520;2022-08-19T02:58:39;21.10;98.00
4505;DHT22;2265;48.794;9.520;2022-08-19T03:01:22;21.10;98.00
4505;DHT22;2265;48.794;9.520;2022-08-19T03:03:51;21.10;98.00
4505;DHT22;2265;48.794;9.520;2022-08-19T03:06:19;20.90;98.00
4505;DHT22;2265;48.794;9.520;2022-08-19T03:08:48;20.80;98.00
4505;DHT22;2265;48.794;9.520;2022-08-19T03:11:16;20.70;98.00
4505;DHT22;2265;48.794;9.520;2022-08-19T03:13:45;20.60;98.00
4505;DHT22;2265;48.794;9.520;2022-08-19T03:16:16;20.60;98.00
4505;DHT22;2265;48.794;9.520;2022-08-19T03:18:43;20.70;98.00
4505;DHT22;2265;48.794;9.520;2022-08-19T03:21:17;20.70;98.00
4505;DHT22;2265;48.794;9.520;2022-08-19T03:23:44;20.60;98.00
4505;DHT22;2265;48.794;9.520;2022-08-19T03:26:11;20.70;98.00
4505;DHT22;2265;48.794;9.520;2022-08-19T03:28:40;20.50;98.00
4505;DHT22;2265;48.794;9.520;2022-08-19T03:31:11;20.40;98.00
4505;DHT22;2265;48.794;9.520;2022-08-19T03:33:40;20.40;98.00
4505;DHT22;2265;48.794;9.520;2022-08-19T03:36:10;20.40;98.00
4505;DHT22;2265;48.794;9.520;2022-08-19T03:38:40;20.40;98.00
4505;DHT22;2265;48.794;9.520;2022-08-19T03:41:11;20.40;98.00
4505;DHT22;2265;48.794;9.520;2022-08-19T03:43:40;20.50;98.00
4505;DHT22;2265;48.794;9.520;2022-08-19T03:46:10;20.60;98.00
4505;DHT22;2265;48.794;9.520;2022-08-19T03:48:39;20.60;98.00
4505;DHT22;2265;48.794;9.520;2022-08-19T03:51:14;20.60;98.00
4505;DHT22;2265;48.794;9.520;2022-08-19T03:53:43;20.50;98.00
4505;DHT22;2265;48.794;9.520;2022-08-19T03:56:10;20.40;98.00
4505;DHT22;2265;48.794;9.520;2022-08-19T03:58:39;20.30;98.00
4505;DHT22;2265;48.794;9.520;2022-08-19T04:01:08;20.40;98.00
4505;DHT22;2265;48.794;9.520;2022-08-19T04:03:35;20.40;98.00
4505;DHT22;2265;48.794;9.520;2022-08-19T04:06:10;20.40;98.00
4505;DHT22;2265;48.794;9.520;2022-08-19T04:08:39;20.30;98.00
4505;DHT22;2265;48.794;9.520;2022-08-19T04:11:09;20.30;98.00
4505;DHT22;2265;48.794;9.520;2022-08-19T04:13:36;20.30;98.00
4505;DHT22;2265;48.794;9.520;2022-08-19T04:16:06;20.30;98.00
4505;DHT22;2265;48.794;9.520;2022-08-19T04:18:36;20.30;98.00
4505;DHT22;2265;48.794;9.520;2022-08-19T04:21:03;20.20;98.00
4505;DHT22;2265;48.794;9.520;2022-08-19T04:23:31;20.20;98.00
4505;DHT22;2265;48.794;9.520;2022-08-19T04:25:59;20.20;98.00
4505;DHT22;2265;48.794;9.520;2022-08-19T04:28:27;20.20;98.00
4505;DHT22;2265;48.794;9.520;2022-08-19T04:30:55;20.40;98.00
4505;DHT22;2265;48.794;9.520;2022-08-19T04:33:24;20.50;98.00
4505;DHT22;2265;48.794;9.520;2022-08-19T04:35:52;20.40;98.00
4505;DHT22;2265;48.794;9.520;2022-08-19T04:38:21;20.30;98.00
4505;DHT22;2265;48.794;9.520;2022-08-19T04:40:51;20.30;98.00
4505;DHT22;2265;48.794;9.520;2022-08-19T04:43:38;20.30;98.00
4505;DHT22;2265;48.794;9.520;2022-08-19T04:46:05;20.30;98.00
4505;DHT22;2265;48.794;9.520;2022-08-19T04:48:33;20.30;98.00
4505;DHT22;2265;48.794;9.520;2022-08-19T04:51:04;20.30;98.00
4505;DHT22;2265;48.794;9.520;2022-08-19T04:53:34;20.40;98.00
4505;DHT22;2265;48.794;9.520;2022-08-19T04:56:06;20.40;98.00
4505;DHT22;2265;48.794;9.520;2022-08-19T04:58:37;20.50;98.00
4505;DHT22;2265;48.794;9.520;2022-08-19T05:01:06;20.70;98.00
4505;DHT22;2265;48.794;9.520;2022-08-19T05:03:36;20.60;98.00
4505;DHT22;2265;48.794;9.520;2022-08-19T05:06:04;20.60;98.00
4505;DHT22;2265;48.794;9.520;2022-08-19T05:08:33;20.50;98.00
4505;DHT22;2265;48.794;9.520;2022-08-19T05:11:09;20.60;98.00
4505;DHT22;2265;48.794;9.520;2022-08-19T05:13:38;20.70;98.00
4505;DHT22;2265;48.794;9.520;2022-08-19T05:16:06;20.70;98.00
4505;DHT22;2265;48.794;9.520;2022-08-19T05:18:33;20.70;98.00
4505;DHT22;2265;48.794;9.520;2022-08-19T05:21:24;20.80;98.00
4505;DHT22;2265;48.794;9.520;2022-08-19T05:24:09;20.80;98.00
4505;DHT22;2265;48.794;9.520;2022-08-19T05:26:36;21.00;98.00
4505;DHT22;2265;48.794;9.520;2022-08-19T05:29:06;21.00;98.00
4505;DHT22;2265;48.794;9.520;2022-08-19T05:31:34;21.20;98.00
4505;DHT22;2265;48.794;9.520;2022-08-19T05:34:01;21.40;98.00
4505;DHT22;2265;48.794;9.520;2022-08-19T05:36:34;21.40;98.00
4505;DHT22;2265;48.794;9.520;2022-08-19T05:39:04;21.40;98.00
4505;DHT22;2265;48.794;9.520;2022-08-19T05:41:31;21.50;98.00
4505;DHT22;2265;48.794;9.520;2022-08-19T05:44:02;21.70;98.00
4505;DHT22;2265;48.794;9.520;2022-08-19T05:46:33;21.80;98.00
4505;DHT22;2265;48.794;9.520;2022-08-19T05:49:01;21.90;98.00
4505;DHT22;2265;48.794;9.520;2022-08-19T05:51:28;22.10;98.00
4505;DHT22;2265;48.794;9.520;2022-08-19T05:53:55;22.20;98.00
4505;DHT22;2265;48.794;9.520;2022-08-19T05:56:23;22.30;98.00
4505;DHT22;2265;48.794;9.520;2022-08-19T05:58:51;22.50;98.00
4505;DHT22;2265;48.794;9.520;2022-08-19T06:01:18;22.60;98.00
4505;DHT22;2265;48.794;9.520;2022-08-19T06:03:48;22.80;98.00
4505;DHT22;2265;48.794;9.520;2022-08-19T06:06:15;22.90;98.00
4505;DHT22;2265;48.794;9.520;2022-08-19T06:08:43;23.00;98.00
4505;DHT22;2265;48.794;9.520;2022-08-19T06:11:16;22.90;98.00
4505;DHT22;2265;48.794;9.520;2022-08-19T06:13:45;22.90;98.00
4505;DHT22;2265;48.794;9.520;2022-08-19T06:16:14;22.90;98.00
4505;DHT22;2265;48.794;9.520;2022-08-19T06:18:49;23.00;98.00
4505;DHT22;2265;48.794;9.520;2022-08-19T06:21:19;22.80;98.00
4505;DHT22;2265;48.794;9.520;2022-08-19T06:23:46;22.70;98.00
4505;DHT22;2265;48.794;9.520;2022-08-19T06:26:15;22.60;98.00
4505;DHT22;2265;48.794;9.520;2022-08-19T06:28:42;22.80;98.00
4505;DHT22;2265;48.794;9.520;2022-08-19T06:31:12;23.00;98.00
4505;DHT22;2265;48.794;9.520;2022-08-19T06:33:41;23.10;98.00
4505;DHT22;2265;48.794;9.520;2022-08-19T06:36:18;23.10;98.00
4505;DHT22;2265;48.794;9.520;2022-08-19T06:38:46;22.90;98.00
4505;DHT22;2265;48.794;9.520;2022-08-19T06:41:13;22.70;98.00
4505;DHT22;2265;48.794;9.520;2022-08-19T19:21:37;20.20;98.00
4505;DHT22;2265;48.794;9.520;2022-08-19T19:24:46;20.10;98.00
4505;DHT22;2265;48.794;9.520;2022-08-19T19:27:15;19.90;98.00
4505;DHT22;2265;48.794;9.520;2022-08-19T19:29:45;19.90;98.00
